KOLS/OLS METAR and TAF weather

Enter ICAO airport designator
Station Type Date Time Source
KOLS METAR 2019/05/27 08:54 UTC NOAA

KOLS 270854Z AUTO 18005KT 10SM CLR 14/M02 A2993 RMK AO2 SLP079 T01441022 56012


Station Type Date Time Source
KOLS Decoded METAR 2019/05/27 08:54 UTC NOAA

NOGALES INTERNATIONAL AIRPORT , AZ, United States (KOLS) 31-25N 110-51W 1184M
May 27, 2019 - 04:54 AM EDT / 2019.05.27 0854 UTC
Wind: from the S (180 degrees) at 6 MPH (5 KT):0
Visibility: 10 mile(s):0
Sky conditions: clear
Temperature: 57.9 F (14.4 C)
Dew Point: 28.0 F (-2.2 C)
Relative Humidity: 31%
Pressure (altimeter): 29.93 in. Hg (1013 hPa)
Pressure tendency: 0.04 inches (1.2 hPa) lower than three hours ago
ob: KOLS 270854Z AUTO 18005KT 10SM CLR 14/M02 A2993 RMK AO2 SLP079 T01441022 56012
cycle: 9

Station Type Date Time Source
KOLS TAF 2019/05/27 06:33 UTC NOAA

TAF KOLS 270529Z 2706/2806 18008KT P6SM SKC
FM271600 20015G25KT P6SM FEW040
FM280300 27007KT P6SM SKC

Example: see airport list